createdAt,value
2023-05-06T00:01:24.136Z,10.85
2023-05-06T00:03:51.053Z,10.86
2023-05-06T00:06:17.649Z,10.87
2023-05-06T00:08:44.134Z,10.82
2023-05-06T00:11:10.575Z,10.75
2023-05-06T00:13:38.002Z,10.68
2023-05-06T00:16:04.939Z,10.66
2023-05-06T00:18:31.337Z,10.64
2023-05-06T00:20:57.760Z,10.65
2023-05-06T00:23:24.089Z,10.66
2023-05-06T00:25:50.508Z,10.69
2023-05-06T00:28:17.171Z,10.71
2023-05-06T00:30:43.521Z,10.70
2023-05-06T00:33:10.020Z,10.69
2023-05-06T00:35:36.573Z,10.71
2023-05-06T00:38:08.885Z,10.71
2023-05-06T00:40:35.843Z,10.73
2023-05-06T00:43:02.852Z,10.76
2023-05-06T00:45:29.423Z,10.78
2023-05-06T00:47:56.688Z,10.81
2023-05-06T00:50:24.174Z,10.82
2023-05-06T00:52:51.358Z,10.81
2023-05-06T00:55:17.983Z,10.78
2023-05-06T00:57:44.559Z,10.78
2023-05-06T01:00:11.707Z,10.78
2023-05-06T01:02:47.169Z,10.80
2023-05-06T01:05:16.515Z,10.83
2023-05-06T01:07:55.015Z,10.82
2023-05-06T01:10:27.811Z,10.82
2023-05-06T01:13:03.879Z,10.85
2023-05-06T01:15:55.397Z,10.87
2023-05-06T01:18:25.588Z,10.90
2023-05-06T01:20:53.842Z,10.92
2023-05-06T01:23:20.275Z,10.91
2023-05-06T01:25:46.662Z,10.88
2023-05-06T01:28:14.122Z,10.86
2023-05-06T01:31:05.610Z,10.84
2023-05-06T01:33:51.054Z,10.81
2023-05-06T01:36:32.460Z,10.76
2023-05-06T01:39:09.658Z,10.70
2023-05-06T01:41:40.287Z,10.68
2023-05-06T01:44:08.239Z,10.64
2023-05-06T01:46:35.910Z,10.53
2023-05-06T01:49:05.529Z,10.48
2023-05-06T01:51:35.081Z,10.39
2023-05-06T01:54:02.358Z,10.27
2023-05-06T01:56:32.053Z,10.20
2023-05-06T01:58:59.749Z,10.12
2023-05-06T02:01:26.612Z,10.07
2023-05-06T02:03:53.275Z,10.07
2023-05-06T02:06:20.048Z,10.03
2023-05-06T02:08:46.980Z,10.05
2023-05-06T02:11:13.593Z,10.04
2023-05-06T02:13:40.059Z,10.00
2023-05-06T02:16:06.652Z,9.99
2023-05-06T02:18:33.143Z,9.94
2023-05-06T02:20:59.614Z,9.89
2023-05-06T02:23:26.000Z,9.83
2023-05-06T02:25:52.940Z,9.80
2023-05-06T02:28:21.895Z,9.80
2023-05-06T02:30:48.318Z,9.78
2023-05-06T02:33:14.762Z,9.76
2023-05-06T02:35:41.118Z,9.73
2023-05-06T02:38:07.504Z,9.72
2023-05-06T02:40:33.961Z,9.71
2023-05-06T02:43:00.409Z,9.68
2023-05-06T02:45:26.797Z,9.65
2023-05-06T02:47:53.282Z,9.61
2023-05-06T02:50:19.696Z,9.58
2023-05-06T02:52:46.213Z,9.54
2023-05-06T02:55:12.636Z,9.51
2023-05-06T02:57:39.044Z,9.50
2023-05-06T03:00:06.496Z,9.50
2023-05-06T03:02:33.073Z,9.47
2023-05-06T03:04:59.582Z,9.44
2023-05-06T03:07:26.055Z,9.41
2023-05-06T03:09:52.495Z,9.40
2023-05-06T03:12:18.882Z,9.37
2023-05-06T03:14:45.259Z,9.34
2023-05-06T03:17:11.647Z,9.30
2023-05-06T03:19:38.075Z,9.28
2023-05-06T03:22:04.474Z,9.27
2023-05-06T03:24:30.869Z,9.25
2023-05-06T03:26:58.567Z,9.22
2023-05-06T03:29:25.179Z,9.20
2023-05-06T03:31:51.705Z,9.18
2023-05-06T03:34:18.357Z,9.15
2023-05-06T03:36:45.630Z,9.08
2023-05-06T03:39:12.155Z,9.02
2023-05-06T03:41:38.622Z,8.96
2023-05-06T03:44:05.290Z,8.91
2023-05-06T03:46:32.522Z,8.87
2023-05-06T03:49:00.656Z,8.86
2023-05-06T03:51:27.559Z,8.85
2023-05-06T03:53:54.911Z,8.83
2023-05-06T03:56:22.242Z,8.82
2023-05-06T03:58:48.907Z,8.81
2023-05-06T04:01:17.224Z,8.81
2023-05-06T04:03:44.584Z,8.80
2023-05-06T04:06:11.040Z,8.80
2023-05-06T04:08:37.467Z,8.82
2023-05-06T04:11:05.331Z,8.79
2023-05-06T04:13:32.584Z,8.73
2023-05-06T04:15:59.164Z,8.73
2023-05-06T04:18:25.687Z,8.74
2023-05-06T04:20:52.050Z,8.79
2023-05-06T04:23:18.555Z,8.84
2023-05-06T04:25:50.572Z,8.90
2023-05-06T04:28:17.557Z,8.95
2023-05-06T04:30:44.948Z,9.03
2023-05-06T04:33:11.800Z,9.08
2023-05-06T04:35:39.149Z,9.12
2023-05-06T04:38:06.204Z,9.12
2023-05-06T04:40:35.325Z,9.09
2023-05-06T04:43:02.965Z,9.07
2023-05-06T04:45:29.857Z,9.05
2023-05-06T04:47:56.420Z,9.07
2023-05-06T04:50:22.813Z,9.09
2023-05-06T04:52:49.184Z,9.12
2023-05-06T04:55:15.668Z,9.18
2023-05-06T04:57:42.152Z,9.27
2023-05-06T05:00:10.404Z,9.31
2023-05-06T05:02:37.289Z,9.37
2023-05-06T05:05:03.919Z,9.38
2023-05-06T05:07:30.500Z,9.45
2023-05-06T05:09:57.010Z,9.55
2023-05-06T05:12:23.450Z,9.61
2023-05-06T05:14:49.946Z,9.71
2023-05-06T05:17:16.582Z,9.80
2023-05-06T05:19:43.120Z,9.87
2023-05-06T05:22:09.709Z,10.00
2023-05-06T05:24:36.190Z,10.20
2023-05-06T05:27:02.578Z,10.54
2023-05-06T05:29:29.120Z,10.83
2023-05-06T05:31:55.508Z,11.12
2023-05-06T05:34:21.951Z,11.62
2023-05-06T05:36:48.345Z,11.90
2023-05-06T05:39:14.758Z,11.74
2023-05-06T05:41:41.174Z,11.53
2023-05-06T05:44:07.592Z,11.47
2023-05-06T05:46:34.294Z,11.50
2023-05-06T05:49:01.132Z,11.53
2023-05-06T05:51:27.579Z,11.54
2023-05-06T05:53:54.000Z,11.55
2023-05-06T05:56:20.697Z,11.55
2023-05-06T05:58:47.495Z,11.56
2023-05-06T06:01:14.601Z,11.60
2023-05-06T06:03:41.982Z,11.62
2023-05-06T06:06:09.432Z,11.64
2023-05-06T06:08:36.417Z,11.71
2023-05-06T06:11:04.404Z,11.77
2023-05-06T06:13:31.155Z,11.81
2023-05-06T06:15:58.052Z,11.87
2023-05-06T06:18:24.687Z,11.88
2023-05-06T06:20:53.128Z,11.95
2023-05-06T06:23:20.828Z,12.04
2023-05-06T06:25:47.310Z,12.11
2023-05-06T06:28:13.792Z,12.20
2023-05-06T06:30:40.911Z,12.20
2023-05-06T06:33:07.569Z,12.19
2023-05-06T06:35:35.631Z,12.16
2023-05-06T06:38:03.011Z,12.25
2023-05-06T06:40:29.644Z,12.33
2023-05-06T06:42:56.037Z,12.49
2023-05-06T06:45:23.427Z,12.46
2023-05-06T06:47:50.021Z,12.48
2023-05-06T06:50:16.688Z,12.58
2023-05-06T06:52:43.069Z,12.63
2023-05-06T06:55:10.207Z,12.68
2023-05-06T06:57:38.040Z,12.69
2023-05-06T07:00:05.089Z,12.82
2023-05-06T07:02:31.735Z,12.92
2023-05-06T07:04:58.097Z,12.99
2023-05-06T07:07:24.500Z,12.94
2023-05-06T07:09:50.889Z,13.04
2023-05-06T07:12:17.339Z,13.24
2023-05-06T07:14:43.747Z,13.38
2023-05-06T07:17:10.302Z,13.58
2023-05-06T07:19:36.941Z,13.92
2023-05-06T07:22:03.498Z,14.15
2023-05-06T07:24:29.971Z,14.34
2023-05-06T07:26:56.632Z,14.45
2023-05-06T07:29:23.316Z,14.53
2023-05-06T07:31:49.932Z,14.63
2023-05-06T07:34:16.502Z,14.77
2023-05-06T07:36:44.707Z,14.78
2023-05-06T07:39:12.339Z,14.88
2023-05-06T07:41:38.841Z,15.10
2023-05-06T07:44:06.204Z,15.17
2023-05-06T07:46:32.912Z,15.20
2023-05-06T07:48:59.410Z,15.36
2023-05-06T07:51:27.071Z,15.40
2023-05-06T07:53:53.588Z,15.59
2023-05-06T07:56:19.986Z,15.94
2023-05-06T07:58:46.457Z,16.25
2023-05-06T08:01:12.876Z,16.35
2023-05-06T08:03:40.492Z,16.29
2023-05-06T08:06:07.223Z,16.34
2023-05-06T08:08:33.640Z,16.43
2023-05-06T08:11:00.830Z,16.70
2023-05-06T08:13:28.155Z,16.75
2023-05-06T08:15:55.420Z,16.71
2023-05-06T08:18:23.130Z,16.72
2023-05-06T08:20:49.932Z,17.03
2023-05-06T08:23:16.525Z,17.29
2023-05-06T08:25:43.087Z,17.51
2023-05-06T08:28:09.553Z,17.71
2023-05-06T08:30:36.565Z,17.69
2023-05-06T08:33:03.344Z,17.91
2023-05-06T08:35:29.718Z,17.98
2023-05-06T08:37:56.133Z,18.14
2023-05-06T08:40:23.895Z,18.29
2023-05-06T08:42:50.918Z,18.10
2023-05-06T08:45:17.901Z,18.08
2023-05-06T08:47:45.100Z,18.10
2023-05-06T08:50:11.766Z,18.23
2023-05-06T08:52:39.386Z,18.28
2023-05-06T08:55:06.841Z,18.53
2023-05-06T08:57:34.467Z,18.62
2023-05-06T09:00:01.378Z,18.64
2023-05-06T09:02:28.422Z,18.69
2023-05-06T09:04:56.479Z,18.69
2023-05-06T09:07:24.050Z,18.82
2023-05-06T09:09:51.736Z,19.04
2023-05-06T09:12:18.429Z,19.23
2023-05-06T09:14:46.660Z,19.44
2023-05-06T09:17:26.702Z,19.42
2023-05-06T09:19:54.707Z,19.40
2023-05-06T09:22:22.442Z,19.47
2023-05-06T09:24:56.451Z,19.48
2023-05-06T09:27:25.373Z,19.35
2023-05-06T09:30:02.082Z,19.45
2023-05-06T09:32:29.577Z,19.46
2023-05-06T09:34:56.459Z,19.54
2023-05-06T09:37:23.472Z,19.61
2023-05-06T09:39:53.349Z,19.75
2023-05-06T09:42:21.796Z,19.73
2023-05-06T09:44:48.266Z,19.75
2023-05-06T09:47:15.038Z,19.95
2023-05-06T09:49:42.072Z,19.95
2023-05-06T09:52:08.482Z,20.00
2023-05-06T09:54:35.676Z,19.86
2023-05-06T09:57:04.597Z,19.73
2023-05-06T09:59:32.529Z,20.04
2023-05-06T10:01:59.546Z,20.31
2023-05-06T10:04:27.315Z,20.39
2023-05-06T10:06:56.502Z,20.14
2023-05-06T10:09:27.061Z,20.11
2023-05-06T10:11:53.783Z,20.53
2023-05-06T10:14:20.497Z,20.68
2023-05-06T10:16:49.126Z,20.56
2023-05-06T10:19:23.009Z,20.69
2023-05-06T10:21:54.569Z,21.13
2023-05-06T10:24:28.061Z,21.25
2023-05-06T10:26:56.463Z,21.13
2023-05-06T10:29:26.683Z,21.11
2023-05-06T10:31:55.576Z,21.07
2023-05-06T10:34:24.102Z,21.13
2023-05-06T10:36:53.945Z,21.06
2023-05-06T10:39:21.038Z,21.22
2023-05-06T10:41:48.549Z,21.62
2023-05-06T10:44:14.991Z,21.70
2023-05-06T10:46:59.528Z,21.65
2023-05-06T10:49:26.593Z,21.84
2023-05-06T10:52:13.246Z,21.93
2023-05-06T10:54:51.072Z,21.94
2023-05-06T10:57:18.337Z,22.08
2023-05-06T10:59:48.888Z,21.99
2023-05-06T11:02:19.942Z,21.80
2023-05-06T11:05:00.086Z,21.70
2023-05-06T11:07:27.254Z,21.78
2023-05-06T11:10:08.130Z,21.97
2023-05-06T11:12:52.569Z,21.93
2023-05-06T11:15:40.433Z,21.74
2023-05-06T11:18:29.252Z,21.71
2023-05-06T11:21:02.377Z,22.01
2023-05-06T11:23:49.205Z,22.07
2023-05-06T11:26:15.995Z,22.06
2023-05-06T11:28:45.025Z,22.07
2023-05-06T11:31:12.988Z,22.17
2023-05-06T11:33:46.410Z,22.43
2023-05-06T11:36:17.830Z,22.50
2023-05-06T11:38:46.536Z,22.67
2023-05-06T11:41:13.748Z,22.86
2023-05-06T11:43:40.277Z,22.61
2023-05-06T11:46:06.960Z,23.04
2023-05-06T11:48:33.395Z,23.41
2023-05-06T11:51:00.035Z,23.60
2023-05-06T11:53:26.474Z,23.30
2023-05-06T11:55:54.130Z,23.17
2023-05-06T11:58:27.291Z,23.91
2023-05-06T12:00:58.796Z,24.41
2023-05-06T12:03:27.347Z,24.10
2023-05-06T12:05:54.963Z,23.93
2023-05-06T12:08:27.987Z,24.12
2023-05-06T12:10:56.386Z,23.80
2023-05-06T12:13:23.159Z,24.02
2023-05-06T12:15:50.468Z,24.24
2023-05-06T12:18:17.478Z,23.84
2023-05-06T12:20:44.274Z,23.56
2023-05-06T12:23:12.303Z,23.67
2023-05-06T12:25:39.810Z,24.09
2023-05-06T12:28:20.094Z,24.13
2023-05-06T12:30:47.296Z,23.89
2023-05-06T12:33:14.063Z,23.80
2023-05-06T12:35:41.276Z,23.67
2023-05-06T12:38:14.937Z,24.00
2023-05-06T12:40:52.233Z,24.53
2023-05-06T12:43:18.706Z,24.27
2023-05-06T12:46:02.873Z,23.96
2023-05-06T12:48:29.310Z,23.98
2023-05-06T12:50:55.708Z,24.39
2023-05-06T12:53:34.162Z,24.52
2023-05-06T12:56:00.986Z,24.59
2023-05-06T12:58:27.420Z,24.79
2023-05-06T13:00:53.812Z,24.86
2023-05-06T13:03:20.410Z,24.06
2023-05-06T13:05:49.957Z,23.64
2023-05-06T13:08:16.446Z,23.56
2023-05-06T13:10:42.840Z,23.71
2023-05-06T13:13:09.318Z,23.87
2023-05-06T13:15:36.331Z,24.05
2023-05-06T13:18:03.082Z,24.36
2023-05-06T13:20:30.375Z,24.46
2023-05-06T13:22:56.788Z,24.70
2023-05-06T13:25:23.430Z,24.38
2023-05-06T13:27:49.877Z,24.16
2023-05-06T13:30:17.060Z,23.82
2023-05-06T13:32:43.548Z,24.05
2023-05-06T13:35:10.608Z,23.95
2023-05-06T13:37:37.187Z,23.76
2023-05-06T13:40:04.759Z,23.91
2023-05-06T13:42:31.232Z,23.83
2023-05-06T13:44:57.682Z,24.10
2023-05-06T13:47:24.284Z,24.85
2023-05-06T13:49:51.066Z,24.82
2023-05-06T13:52:17.431Z,24.96
2023-05-06T13:54:44.957Z,24.92
2023-05-06T13:57:11.511Z,24.85
2023-05-06T13:59:37.992Z,24.93
2023-05-06T14:02:08.229Z,24.93
2023-05-06T14:04:35.938Z,25.29
2023-05-06T14:07:02.473Z,25.58
2023-05-06T14:09:28.827Z,25.15
2023-05-06T14:11:55.230Z,24.68
2023-05-06T14:14:22.074Z,24.67
2023-05-06T14:16:48.458Z,25.39
2023-05-06T14:19:15.027Z,25.44
2023-05-06T14:21:41.437Z,25.42
2023-05-06T14:24:08.216Z,25.44
2023-05-06T14:26:34.703Z,25.41
2023-05-06T14:29:01.407Z,25.36
2023-05-06T14:31:29.375Z,24.94
2023-05-06T14:33:56.282Z,24.69
2023-05-06T14:36:22.644Z,24.91
2023-05-06T14:38:48.993Z,24.97
2023-05-06T14:41:15.422Z,25.20
2023-05-06T14:43:41.887Z,25.21
2023-05-06T14:46:08.282Z,25.39
2023-05-06T14:48:34.699Z,25.67
2023-05-06T14:51:01.110Z,25.76
2023-05-06T14:53:27.452Z,26.11
2023-05-06T14:55:53.853Z,26.13
2023-05-06T14:58:20.247Z,25.20
2023-05-06T15:00:46.647Z,24.92
2023-05-06T15:03:13.074Z,24.61
2023-05-06T15:05:39.590Z,24.60
2023-05-06T15:08:06.076Z,24.37
2023-05-06T15:10:32.520Z,24.32
2023-05-06T15:12:59.159Z,24.52
2023-05-06T15:15:25.646Z,24.48
2023-05-06T15:17:52.468Z,24.40
2023-05-06T15:20:19.048Z,24.24
2023-05-06T15:22:45.594Z,24.22
2023-05-06T15:25:19.421Z,24.24
2023-05-06T15:27:52.979Z,23.71
2023-05-06T15:30:19.383Z,23.77
2023-05-06T15:32:47.577Z,23.76
2023-05-06T15:35:14.017Z,23.59
2023-05-06T15:37:40.669Z,23.62
2023-05-06T15:40:13.739Z,23.67
2023-05-06T15:42:40.749Z,23.64
2023-05-06T15:45:07.750Z,23.32
2023-05-06T15:47:34.264Z,23.18
2023-05-06T15:50:01.594Z,23.38
2023-05-06T15:52:28.481Z,23.20
2023-05-06T15:54:59.421Z,23.23
2023-05-06T15:57:26.472Z,23.21
2023-05-06T15:59:52.935Z,23.26
2023-05-06T16:04:49.014Z,23.30
2023-05-06T16:07:15.682Z,23.34
2023-05-06T16:09:42.897Z,23.15
2023-05-06T16:12:10.131Z,23.05
2023-05-06T16:14:36.780Z,23.08
2023-05-06T16:17:03.423Z,22.93
2023-05-06T16:19:31.983Z,22.91
2023-05-06T16:21:58.509Z,23.03
2023-05-06T16:24:25.019Z,22.94
2023-05-06T16:26:51.927Z,22.80
2023-05-06T16:29:20.638Z,22.83
2023-05-06T16:31:47.966Z,22.95
2023-05-06T16:34:14.860Z,23.09
2023-05-06T16:36:41.504Z,23.02
2023-05-06T16:39:08.365Z,22.94
2023-05-06T16:41:34.823Z,22.68
2023-05-06T16:44:01.669Z,22.57
2023-05-06T16:46:28.869Z,22.61
2023-05-06T16:48:55.835Z,22.59
2023-05-06T16:51:22.521Z,22.57
2023-05-06T16:53:49.147Z,22.44
2023-05-06T16:56:15.656Z,22.37
2023-05-06T16:58:42.700Z,22.27
2023-05-06T17:01:09.592Z,21.97
2023-05-06T17:03:39.056Z,21.93
2023-05-06T17:06:05.825Z,21.88
2023-05-06T17:08:36.120Z,21.91
2023-05-06T17:11:06.236Z,21.95
2023-05-06T17:13:33.044Z,21.87
2023-05-06T17:15:59.514Z,21.73
2023-05-06T17:18:26.174Z,21.74
2023-05-06T17:20:56.690Z,21.63
2023-05-06T17:23:23.636Z,21.59
2023-05-06T17:25:51.083Z,21.49
2023-05-06T17:28:18.906Z,21.49
2023-05-06T17:30:45.876Z,21.47
2023-05-06T17:33:12.610Z,21.38
2023-05-06T17:35:39.112Z,21.37
2023-05-06T17:40:32.154Z,21.28
2023-05-06T17:42:58.507Z,21.33
2023-05-06T17:45:26.742Z,21.23
2023-05-06T17:47:53.377Z,21.15
2023-05-06T17:50:20.101Z,20.52
2023-05-06T17:52:48.838Z,20.14
2023-05-06T17:55:17.476Z,19.73
2023-05-06T17:57:44.183Z,19.17
2023-05-06T18:00:11.529Z,19.10
2023-05-06T18:02:38.140Z,19.01
2023-05-06T18:05:05.000Z,18.64
2023-05-06T18:07:31.447Z,18.40
2023-05-06T18:09:57.904Z,18.34
2023-05-06T18:12:24.365Z,18.11
2023-05-06T18:14:50.795Z,17.89
2023-05-06T18:17:17.189Z,17.52
2023-05-06T18:19:43.566Z,17.47
2023-05-06T18:22:09.979Z,17.24
2023-05-06T18:24:37.210Z,17.16
2023-05-06T18:27:04.386Z,17.06
2023-05-06T18:29:32.599Z,16.95
2023-05-06T18:32:01.372Z,16.90
2023-05-06T18:34:27.947Z,16.85
2023-05-06T18:36:54.451Z,16.89
2023-05-06T18:39:22.944Z,16.80
2023-05-06T18:41:49.419Z,16.83
2023-05-06T18:44:15.824Z,16.92
2023-05-06T18:46:42.383Z,16.94
2023-05-06T18:49:08.783Z,16.98
2023-05-06T18:51:35.316Z,17.02
2023-05-06T18:54:01.702Z,16.90
2023-05-06T18:56:28.075Z,16.85
2023-05-06T18:58:54.483Z,16.90
2023-05-06T19:01:21.404Z,16.85
2023-05-06T19:03:47.876Z,16.79
2023-05-06T19:06:14.333Z,16.78
2023-05-06T19:08:40.850Z,16.73
2023-05-06T19:11:15.419Z,16.76
2023-05-06T19:13:43.655Z,16.81
2023-05-06T19:16:10.391Z,16.82
2023-05-06T19:18:36.823Z,16.75
2023-05-06T19:21:03.208Z,16.75
2023-05-06T19:23:29.623Z,16.73
2023-05-06T19:25:56.261Z,16.74
2023-05-06T19:28:22.735Z,16.74
2023-05-06T19:30:49.225Z,16.77
2023-05-06T19:33:16.472Z,16.78
2023-05-06T19:35:42.898Z,16.83
2023-05-06T19:38:09.537Z,16.81
2023-05-06T19:40:36.020Z,16.79
2023-05-06T19:43:03.761Z,16.79
2023-05-06T19:45:34.032Z,16.69
2023-05-06T19:48:01.197Z,16.70
2023-05-06T19:50:28.341Z,16.70
2023-05-06T19:52:54.773Z,16.64
2023-05-06T19:55:21.460Z,16.61
2023-05-06T19:57:48.038Z,16.66
2023-05-06T20:00:18.131Z,16.62
2023-05-06T20:02:45.294Z,16.52
2023-05-06T20:05:12.143Z,16.44
2023-05-06T20:07:38.987Z,16.38
2023-05-06T20:10:06.197Z,16.33
2023-05-06T20:12:33.261Z,16.29
2023-05-06T20:14:59.682Z,16.26
2023-05-06T20:17:26.214Z,16.28
2023-05-06T20:19:52.692Z,16.26
2023-05-06T20:22:19.094Z,16.20
2023-05-06T20:24:45.819Z,16.16
2023-05-06T20:27:12.315Z,16.16
2023-05-06T20:29:38.798Z,16.16
2023-05-06T20:32:05.418Z,16.12
2023-05-06T20:34:31.831Z,16.13
2023-05-06T20:36:58.289Z,16.11
2023-05-06T20:39:24.873Z,16.09
2023-05-06T20:41:51.331Z,16.09
2023-05-06T20:44:17.859Z,16.10
2023-05-06T20:46:44.481Z,16.04
2023-05-06T20:49:11.795Z,16.00
2023-05-06T20:51:38.374Z,15.97
2023-05-06T20:54:04.881Z,15.97
2023-05-06T20:56:31.335Z,15.94
2023-05-06T20:58:57.686Z,15.94
2023-05-06T21:01:25.572Z,15.94
2023-05-06T21:03:52.141Z,15.95
2023-05-06T21:06:19.307Z,15.96
2023-05-06T21:08:46.725Z,15.91
2023-05-06T21:11:13.777Z,15.92
2023-05-06T21:13:40.799Z,15.93
2023-05-06T21:16:07.442Z,15.94
2023-05-06T21:18:34.282Z,15.94
2023-05-06T21:21:00.948Z,15.93
2023-05-06T21:23:27.287Z,15.91
2023-05-06T21:25:53.661Z,15.92
2023-05-06T21:28:20.072Z,15.90
2023-05-06T21:30:46.689Z,15.85
2023-05-06T21:33:13.065Z,15.82
2023-05-06T21:35:39.465Z,15.77
2023-05-06T21:38:07.019Z,15.73
2023-05-06T21:40:33.458Z,15.74
2023-05-06T21:42:59.912Z,15.75
2023-05-06T21:45:26.783Z,15.73
2023-05-06T21:47:53.437Z,15.73
2023-05-06T21:50:20.225Z,15.70
2023-05-06T21:52:46.704Z,15.66
2023-05-06T21:55:13.328Z,15.58
2023-05-06T21:57:39.879Z,15.55
2023-05-06T22:00:11.976Z,15.53
2023-05-06T22:02:39.860Z,15.42
2023-05-06T22:05:08.139Z,15.32
2023-05-06T22:07:35.755Z,15.33
2023-05-06T22:10:02.310Z,15.27
2023-05-06T22:12:28.759Z,15.31
2023-05-06T22:14:55.221Z,15.33
2023-05-06T22:17:22.149Z,15.34
2023-05-06T22:19:49.173Z,15.24
2023-05-06T22:22:16.459Z,15.13
2023-05-06T22:24:43.005Z,15.12
2023-05-06T22:27:09.635Z,15.08
2023-05-06T22:29:36.072Z,15.07
2023-05-06T22:32:03.112Z,15.07
2023-05-06T22:34:29.748Z,15.01
2023-05-06T22:36:57.599Z,15.01
2023-05-06T22:39:24.831Z,14.99
2023-05-06T22:41:52.252Z,15.04
2023-05-06T22:44:18.830Z,15.00
2023-05-06T22:46:45.518Z,15.04
2023-05-06T22:49:11.891Z,15.07
2023-05-06T22:51:38.326Z,15.01
2023-05-06T22:54:04.877Z,14.96
2023-05-06T22:56:31.227Z,14.99
2023-05-06T22:58:57.727Z,14.96
2023-05-06T23:01:25.959Z,14.95
2023-05-06T23:03:52.536Z,14.92
2023-05-06T23:06:19.131Z,14.88
2023-05-06T23:08:45.688Z,14.83
2023-05-06T23:11:12.030Z,14.86
2023-05-06T23:13:38.553Z,14.85
2023-05-06T23:16:05.414Z,14.88
2023-05-06T23:18:32.021Z,14.89
2023-05-06T23:20:58.430Z,14.91
2023-05-06T23:23:24.883Z,14.88
2023-05-06T23:25:51.323Z,14.89
2023-05-06T23:28:17.720Z,14.83
2023-05-06T23:30:44.205Z,14.76
2023-05-06T23:33:10.695Z,14.68
2023-05-06T23:35:37.155Z,14.64
2023-05-06T23:38:03.587Z,14.66
2023-05-06T23:40:30.073Z,14.66
2023-05-06T23:42:56.502Z,14.62
2023-05-06T23:45:22.849Z,14.60
2023-05-06T23:47:49.286Z,14.62
2023-05-06T23:50:15.838Z,14.58
2023-05-06T23:52:42.267Z,14.55
2023-05-06T23:55:09.520Z,14.52
2023-05-06T23:57:36.198Z,14.50
